Terminal Aerodrome Forecast
Issued by NWS Chicago, IL

Home | Current Version | Previous Version | Text Only | Print | Product List | Glossary Off
Versions: 1 2 3 4 5 6 7 8 9 10 11 12 13 14 15 16 17 18 19 20 21

433
FTUS43 KLOT 200306 AAA
TAFRFD
TAF AMD
KRFD 200306Z 2003/2024 13007KT P6SM FEW025 SCT200
     FM200900 13005KT 5SM BR FEW250
     FM201500 16010KT P6SM SCT040
     FM201800 18012G19KT P6SM SCT060 SCT250=

USA.gov is the U.S. government's official web portal to all federal, state and local government web resources and services.